createdAt,value
2018-08-31T00:01:52.608Z,91.78
2018-08-31T00:08:40.838Z,90.95
2018-08-31T00:14:45.459Z,90.93
2018-08-31T00:20:50.099Z,91.24
2018-08-31T00:27:11.705Z,90.25
2018-08-31T00:33:35.026Z,89.87
2018-08-31T00:42:04.347Z,91.74
2018-08-31T00:48:10.702Z,91.60
2018-08-31T00:54:15.350Z,91.34
2018-08-31T01:00:20.369Z,90.95
2018-08-31T01:06:24.963Z,90.76
2018-08-31T01:12:29.649Z,91.00
2018-08-31T01:21:06.317Z,91.61
2018-08-31T01:27:11.701Z,91.69
2018-08-31T01:33:16.616Z,91.27
2018-08-31T01:39:21.433Z,90.89
2018-08-31T01:45:26.299Z,90.74
2018-08-31T01:51:31.141Z,90.87
2018-08-31T01:57:35.823Z,92.07
2018-08-31T02:03:41.340Z,90.72
2018-08-31T02:09:46.638Z,90.50
2018-08-31T02:15:51.453Z,90.70
2018-08-31T02:21:56.472Z,90.88
2018-08-31T02:28:01.151Z,91.65
2018-08-31T02:34:06.132Z,90.93
2018-08-31T02:40:11.380Z,92.10
2018-08-31T02:46:16.825Z,93.17
2018-08-31T02:52:21.505Z,92.54
2018-08-31T02:58:26.270Z,92.86
2018-08-31T03:04:31.057Z,92.21
2018-08-31T03:10:35.826Z,92.06
2018-08-31T03:19:14.205Z,92.99
2018-08-31T03:25:19.113Z,92.79
2018-08-31T03:31:23.957Z,94.23
2018-08-31T03:37:28.783Z,93.61
2018-08-31T03:43:33.570Z,93.76
2018-08-31T03:49:38.336Z,93.43
2018-08-31T03:55:43.682Z,93.80
2018-08-31T04:01:48.669Z,93.41
2018-08-31T04:07:53.741Z,93.20
2018-08-31T04:13:58.697Z,92.20
2018-08-31T04:20:03.420Z,91.92
2018-08-31T04:26:08.172Z,91.95
2018-08-31T04:32:14.240Z,91.65
2018-08-31T04:38:19.001Z,92.03
2018-08-31T04:44:23.861Z,92.67
2018-08-31T04:50:28.812Z,92.17
2018-08-31T04:56:33.540Z,92.42
2018-08-31T05:02:38.300Z,92.29
2018-08-31T05:08:43.387Z,91.77
2018-08-31T05:14:48.330Z,91.79
2018-08-31T05:20:53.077Z,91.03
2018-08-31T05:26:57.938Z,91.00
2018-08-31T05:33:02.700Z,90.29
2018-08-31T05:39:11.447Z,90.43
2018-08-31T05:45:16.766Z,89.30
2018-08-31T05:51:21.456Z,88.40
2018-08-31T05:57:26.340Z,89.07
2018-08-31T06:03:31.104Z,88.34
2018-08-31T06:09:36.143Z,86.98
2018-08-31T06:15:41.022Z,87.28
2018-08-31T06:21:46.223Z,86.19
2018-08-31T06:27:51.462Z,86.45
2018-08-31T06:33:56.347Z,86.27
2018-08-31T06:40:01.093Z,84.45
2018-08-31T06:46:06.056Z,83.63
2018-08-31T06:52:12.535Z,83.37
2018-08-31T06:58:17.390Z,84.35
2018-08-31T07:04:22.179Z,82.18
2018-08-31T07:10:26.879Z,81.08
2018-08-31T07:16:31.761Z,79.42
2018-08-31T07:22:36.570Z,78.51
2018-08-31T07:28:41.824Z,76.31
2018-08-31T07:34:46.662Z,76.43
2018-08-31T07:40:51.428Z,73.28
2018-08-31T07:46:56.374Z,73.07
2018-08-31T07:53:01.791Z,73.42
2018-08-31T07:59:06.825Z,71.42
2018-08-31T08:05:11.949Z,68.19
2018-08-31T08:11:16.781Z,66.59
2018-08-31T08:17:22.146Z,69.94
2018-08-31T08:23:27.115Z,70.34
2018-08-31T08:29:32.242Z,70.16
2018-08-31T08:35:37.289Z,66.59
2018-08-31T08:41:42.429Z,66.52
2018-08-31T08:47:47.424Z,63.97
2018-08-31T08:53:52.081Z,61.92
2018-08-31T08:59:56.914Z,61.04
2018-08-31T09:06:01.614Z,59.46
2018-08-31T09:12:06.639Z,59.42
2018-08-31T09:18:13.207Z,55.20
2018-08-31T09:24:18.156Z,57.53
2018-08-31T09:30:28.249Z,57.41
2018-08-31T09:36:33.354Z,53.20
2018-08-31T09:42:38.298Z,53.43
2018-08-31T09:48:43.570Z,49.26
2018-08-31T09:54:48.364Z,45.81
2018-08-31T10:00:55.447Z,41.72
2018-08-31T10:07:00.433Z,39.33
2018-08-31T10:13:05.217Z,35.80
2018-08-31T10:19:11.364Z,36.31
2018-08-31T10:25:16.551Z,41.46
2018-08-31T10:31:21.248Z,42.59
2018-08-31T10:37:26.232Z,47.77
2018-08-31T10:43:31.149Z,51.91
2018-08-31T10:49:35.900Z,53.10
2018-08-31T10:55:41.524Z,52.86
2018-08-31T11:01:46.630Z,52.14
2018-08-31T11:07:51.560Z,51.05
2018-08-31T11:13:56.357Z,50.99
2018-08-31T11:20:01.453Z,52.52
2018-08-31T11:26:06.292Z,48.68
2018-08-31T11:32:12.184Z,40.52
2018-08-31T11:38:17.929Z,38.69
2018-08-31T11:44:22.641Z,33.65
2018-08-31T11:50:27.488Z,32.35
2018-08-31T11:56:32.404Z,30.14
2018-08-31T12:02:37.346Z,29.20
2018-08-31T12:08:43.014Z,29.79
2018-08-31T12:14:47.858Z,33.23
2018-08-31T12:20:53.187Z,37.08
2018-08-31T12:26:58.306Z,38.88
2018-08-31T12:33:03.060Z,37.75
2018-08-31T12:39:11.801Z,35.68
2018-08-31T12:45:17.240Z,37.67
2018-08-31T12:51:22.061Z,34.66
2018-08-31T12:57:27.268Z,31.96
2018-08-31T13:03:32.077Z,32.95
2018-08-31T13:09:36.836Z,34.59
2018-08-31T13:15:43.184Z,33.24
2018-08-31T13:21:48.463Z,31.15
2018-08-31T13:27:53.682Z,31.81
2018-08-31T13:33:58.433Z,31.81
2018-08-31T13:40:03.351Z,31.16
2018-08-31T13:46:08.581Z,25.94
2018-08-31T13:52:13.914Z,23.45
2018-08-31T13:58:18.696Z,21.99
2018-08-31T14:04:23.417Z,23.69
2018-08-31T14:10:28.167Z,22.52
2018-08-31T14:16:35.829Z,23.22
2018-08-31T14:22:42.935Z,28.64
2018-08-31T14:28:47.814Z,30.95
2018-08-31T14:34:52.678Z,35.16
2018-08-31T14:40:57.447Z,36.29
2018-08-31T14:47:09.329Z,38.53
2018-08-31T14:53:15.193Z,39.69
2018-08-31T14:59:20.217Z,39.92
2018-08-31T15:05:25.639Z,37.42
2018-08-31T15:11:30.531Z,35.92
2018-08-31T15:17:35.838Z,36.94
2018-08-31T15:23:42.718Z,36.47
2018-08-31T15:29:47.470Z,36.40
2018-08-31T15:35:52.628Z,36.20
2018-08-31T15:41:57.898Z,36.19
2018-08-31T15:48:02.851Z,37.04
2018-08-31T15:54:07.629Z,37.01
2018-08-31T16:00:14.780Z,37.29
2018-08-31T16:06:19.612Z,38.29
2018-08-31T16:12:24.358Z,39.79
2018-08-31T16:18:29.239Z,39.99
2018-08-31T16:24:34.224Z,40.26
2018-08-31T16:30:39.081Z,41.46
2018-08-31T16:36:43.940Z,40.74
2018-08-31T16:42:49.565Z,42.09
2018-08-31T16:48:54.383Z,42.79
2018-08-31T16:54:59.617Z,43.46
2018-08-31T17:01:04.475Z,43.39
2018-08-31T17:07:09.444Z,43.51
2018-08-31T17:13:15.198Z,43.34
2018-08-31T17:19:20.434Z,42.94
2018-08-31T17:25:26.059Z,44.33
2018-08-31T17:31:35.923Z,45.25
2018-08-31T17:37:41.404Z,45.52
2018-08-31T17:43:46.501Z,45.73
2018-08-31T17:49:51.588Z,46.57
2018-08-31T17:55:56.562Z,47.78
2018-08-31T18:02:01.317Z,45.93
2018-08-31T18:08:06.154Z,47.50
2018-08-31T18:14:12.001Z,48.74
2018-08-31T18:20:16.779Z,49.42
2018-08-31T18:26:21.806Z,50.33
2018-08-31T18:32:26.547Z,50.48
2018-08-31T18:38:31.409Z,52.01
2018-08-31T18:44:36.387Z,52.05
2018-08-31T18:50:41.786Z,52.31
2018-08-31T18:56:47.173Z,52.19
2018-08-31T19:02:51.925Z,52.34
2018-08-31T19:08:57.398Z,53.99
2018-08-31T19:15:02.473Z,54.15
2018-08-31T19:21:07.178Z,54.86
2018-08-31T19:27:14.180Z,54.68
2018-08-31T19:33:19.328Z,55.14
2018-08-31T19:39:24.192Z,56.07
2018-08-31T19:45:29.323Z,56.83
2018-08-31T19:51:34.080Z,56.83
2018-08-31T19:57:38.960Z,58.12
2018-08-31T20:03:44.640Z,58.00
2018-08-31T20:09:49.666Z,60.03
2018-08-31T20:15:54.399Z,62.27
2018-08-31T20:21:59.136Z,62.91
2018-08-31T20:28:04.252Z,63.53
2018-08-31T20:34:09.906Z,64.27
2018-08-31T20:40:15.618Z,65.41
2018-08-31T20:46:20.524Z,65.25
2018-08-31T20:52:25.482Z,65.97
2018-08-31T20:58:30.319Z,65.60
2018-08-31T21:04:35.270Z,66.01
2018-08-31T21:10:40.783Z,66.74
2018-08-31T21:16:46.376Z,67.54
2018-08-31T21:22:51.251Z,67.69
2018-08-31T21:28:56.054Z,67.33
2018-08-31T21:35:01.188Z,68.16
2018-08-31T21:41:06.277Z,68.15
2018-08-31T21:47:12.398Z,69.02
2018-08-31T21:53:17.150Z,69.63
2018-08-31T21:59:22.031Z,69.97
2018-08-31T22:05:26.911Z,69.42
2018-08-31T22:11:31.556Z,70.33
2018-08-31T22:17:36.461Z,71.09
2018-08-31T22:23:42.553Z,70.66
2018-08-31T22:29:47.852Z,71.31
2018-08-31T22:35:52.972Z,71.62
2018-08-31T22:41:57.898Z,72.12
2018-08-31T22:48:02.630Z,72.53
2018-08-31T22:54:07.583Z,72.54
2018-08-31T23:00:12.863Z,72.54
2018-08-31T23:06:17.730Z,73.15
2018-08-31T23:12:22.486Z,74.02
2018-08-31T23:18:27.194Z,74.24
2018-08-31T23:24:31.900Z,75.19
2018-08-31T23:30:36.705Z,75.65
2018-08-31T23:36:42.572Z,76.02
2018-08-31T23:42:47.428Z,75.89
2018-08-31T23:48:52.159Z,76.69
2018-08-31T23:54:56.876Z,76.42
